Time;durP1;ratioP1;P1;durP2;ratioP2;P2;SDS_P1;SDS_P2;PMS_P1;PMS_P2;Temp;Humidity;BMP_temperature;BMP_pressure;BME280_temperature;BME280_humidity;BME280_pressure;Samples;Min_cycle;Max_cycle;Signal;HPM_P1;HPM_P2
2023/04/20 00:01:01;;;;;;;8.38;4.38;;;10.10;99.90;;;;;;5096808;28;20114;-69
2023/04/20 00:03:27;;;;;;;8.82;4.00;;;10.00;99.90;;;;;;5096585;28;20023;-69
2023/04/20 00:05:53;;;;;;;5.80;4.40;;;10.00;99.90;;;;;;5096635;28;20020;-69
2023/04/20 00:08:18;;;;;;;5.40;4.03;;;9.90;99.90;;;;;;5096702;28;20025;-69
2023/04/20 00:10:44;;;;;;;7.65;4.20;;;9.90;99.90;;;;;;5078256;28;20058;-70
2023/04/20 00:13:10;;;;;;;9.77;4.43;;;9.80;99.90;;;;;;5096546;28;20027;-69
2023/04/20 00:15:36;;;;;;;5.40;3.90;;;9.80;99.90;;;;;;5096581;28;20020;-69
2023/04/20 00:18:02;;;;;;;10.02;4.93;;;9.80;99.90;;;;;;5096372;28;20032;-70
2023/04/20 00:20:28;;;;;;;13.85;5.18;;;9.70;99.90;;;;;;5096251;28;20044;-69
2023/04/20 00:22:53;;;;;;;11.60;5.13;;;9.70;99.90;;;;;;5096618;28;20024;-70
2023/04/20 00:25:20;;;;;;;11.00;4.63;;;9.60;99.90;;;;;;5096272;28;20028;-69
2023/04/20 00:27:45;;;;;;;10.10;4.32;;;9.60;99.90;;;;;;5098242;28;20020;-69
2023/04/20 00:30:12;;;;;;;7.55;4.38;;;9.60;99.90;;;;;;5100253;28;20382;-69
2023/04/20 00:32:37;;;;;;;11.60;5.38;;;9.60;99.90;;;;;;5081810;28;20487;-69
2023/04/20 00:35:04;;;;;;;8.82;4.65;;;9.50;99.90;;;;;;5100023;28;20431;-69
2023/04/20 00:37:29;;;;;;;7.07;4.70;;;9.50;99.90;;;;;;5081876;28;20024;-69
2023/04/20 00:39:56;;;;;;;5.03;4.53;;;9.50;99.90;;;;;;5100138;28;20036;-70
2023/04/20 00:42:22;;;;;;;11.77;5.03;;;9.40;99.90;;;;;;5099648;28;20016;-69
2023/04/20 00:44:49;;;;;;;8.18;5.35;;;9.40;99.90;;;;;;5099940;28;20043;-70
2023/04/20 00:47:15;;;;;;;6.70;5.07;;;9.40;99.90;;;;;;5099794;28;20457;-69
2023/04/20 00:49:41;;;;;;;6.18;4.38;;;9.30;99.90;;;;;;5099685;28;20078;-69
2023/04/20 00:52:07;;;;;;;7.63;4.55;;;9.40;99.90;;;;;;5099523;28;20028;-70
2023/04/20 00:54:34;;;;;;;10.52;5.00;;;9.30;99.90;;;;;;5099706;28;20032;-69
2023/04/20 00:57:01;;;;;;;8.13;4.68;;;9.30;99.90;;;;;;5099393;28;20396;-69
2023/04/20 00:59:27;;;;;;;11.88;5.28;;;9.30;99.90;;;;;;5099457;28;20042;-70
2023/04/20 01:01:52;;;;;;;6.40;4.40;;;9.30;99.90;;;;;;5099373;28;20091;-70
2023/04/20 01:04:18;;;;;;;6.68;4.30;;;9.30;99.90;;;;;;5099404;28;20459;-69
2023/04/20 01:06:44;;;;;;;5.32;4.82;;;9.20;99.90;;;;;;5099470;28;20069;-69
2023/04/20 01:09:11;;;;;;;6.35;4.90;;;9.20;99.90;;;;;;5099555;28;20027;-69
2023/04/20 01:11:37;;;;;;;5.85;5.07;;;9.20;99.90;;;;;;5099077;28;20539;-69
2023/04/20 01:14:02;;;;;;;11.88;4.53;;;9.10;99.90;;;;;;5099429;28;20074;-70
2023/04/20 01:16:29;;;;;;;7.38;5.63;;;9.10;99.90;;;;;;5099036;28;20020;-70
2023/04/20 01:18:55;;;;;;;6.82;4.43;;;9.10;99.90;;;;;;5098907;28;20024;-69
2023/04/20 01:21:22;;;;;;;4.72;4.18;;;9.00;99.90;;;;;;5098965;28;20020;-69
2023/04/20 01:23:48;;;;;;;5.15;4.40;;;9.00;99.90;;;;;;5098999;28;20024;-69
2023/04/20 01:26:16;;;;;;;6.15;4.43;;;9.00;99.90;;;;;;5098662;28;20030;-70
2023/04/20 01:28:42;;;;;;;7.80;4.18;;;9.00;99.90;;;;;;5098825;28;20365;-70
2023/04/20 01:31:09;;;;;;;4.43;3.80;;;9.00;99.90;;;;;;5098853;28;20056;-69
2023/04/20 01:33:35;;;;;;;6.05;4.30;;;8.90;99.90;;;;;;5098533;28;20495;-70
2023/04/20 01:36:01;;;;;;;7.75;5.10;;;8.90;99.90;;;;;;5080731;28;20028;-69
2023/04/20 01:38:27;;;;;;;6.15;4.65;;;8.90;99.90;;;;;;5098662;28;20665;-69
2023/04/20 01:40:54;;;;;;;11.23;5.25;;;8.80;99.90;;;;;;5098310;28;20023;-69
2023/04/20 01:43:21;;;;;;;11.88;5.38;;;8.80;99.90;;;;;;5098754;28;20024;-69
2023/04/20 01:45:46;;;;;;;5.90;4.80;;;8.80;99.90;;;;;;5088202;28;20016;-69
2023/04/20 01:48:12;;;;;;;6.32;4.40;;;8.70;99.90;;;;;;5098447;28;20016;-69
2023/04/20 01:50:38;;;;;;;8.18;4.30;;;8.70;99.90;;;;;;5098129;28;20032;-69
2023/04/20 01:53:03;;;;;;;5.57;4.10;;;8.70;99.90;;;;;;5098635;28;20544;-69
2023/04/20 01:55:29;;;;;;;5.78;5.13;;;8.70;99.90;;;;;;5098184;28;20032;-69
2023/04/20 01:57:55;;;;;;;7.82;4.22;;;8.70;99.90;;;;;;5080254;28;20024;-69
2023/04/20 02:00:21;;;;;;;5.72;4.35;;;8.60;99.90;;;;;;5098439;28;20094;-69
2023/04/20 02:02:46;;;;;;;4.75;4.22;;;8.60;99.90;;;;;;5098342;28;20020;-69
2023/04/20 02:05:12;;;;;;;5.57;4.43;;;8.60;99.90;;;;;;5098201;28;20494;-69
2023/04/20 02:07:37;;;;;;;5.75;4.82;;;8.50;99.90;;;;;;5098276;28;20065;-69
2023/04/20 02:10:04;;;;;;;10.90;5.00;;;8.60;99.90;;;;;;5097751;28;20024;-69
2023/04/20 02:12:29;;;;;;;9.73;5.05;;;8.50;99.90;;;;;;5098215;28;20035;-69
2023/04/20 02:14:55;;;;;;;7.40;5.10;;;8.50;99.90;;;;;;5098015;28;20492;-69
2023/04/20 02:17:21;;;;;;;5.47;4.72;;;8.50;99.90;;;;;;5098153;28;20073;-69
2023/04/20 02:19:46;;;;;;;5.32;4.18;;;8.40;99.90;;;;;;5097671;28;20052;-69
2023/04/20 02:22:12;;;;;;;5.28;4.43;;;8.30;99.90;;;;;;5098029;28;20028;-69
2023/04/20 02:24:38;;;;;;;5.50;4.63;;;8.30;99.90;;;;;;5079756;28;20070;-69
2023/04/20 02:27:04;;;;;;;7.35;4.80;;;8.30;99.90;;;;;;5079442;28;20028;-69
2023/04/20 02:29:30;;;;;;;8.30;4.43;;;8.30;99.90;;;;;;5097758;28;20053;-69
2023/04/20 02:31:56;;;;;;;6.85;5.00;;;8.20;99.90;;;;;;5097712;28;20133;-69
2023/04/20 02:34:22;;;;;;;6.03;4.45;;;8.20;99.90;;;;;;5097624;28;20020;-69
2023/04/20 02:36:47;;;;;;;6.45;5.15;;;8.10;99.90;;;;;;5097748;28;20026;-70
2023/04/20 02:39:13;;;;;;;6.93;5.03;;;8.10;99.90;;;;;;5097528;28;20405;-69
2023/04/20 02:41:39;;;;;;;5.50;5.00;;;8.10;99.90;;;;;;5097514;28;20391;-69
2023/04/20 02:44:05;;;;;;;7.18;5.00;;;8.00;99.90;;;;;;5079358;28;20111;-70
2023/04/20 02:46:30;;;;;;;6.53;5.50;;;8.00;99.90;;;;;;5097531;28;20089;-69
2023/04/20 02:48:56;;;;;;;9.00;5.57;;;8.00;99.90;;;;;;5097392;28;20035;-69
2023/04/20 02:51:22;;;;;;;8.60;5.47;;;8.00;99.90;;;;;;5097162;28;20542;-69
2023/04/20 02:53:47;;;;;;;8.88;5.13;;;7.90;99.90;;;;;;5097486;28;20035;-69
2023/04/20 02:56:13;;;;;;;9.57;5.00;;;7.90;99.90;;;;;;5079195;28;20081;-70
2023/04/20 02:58:39;;;;;;;15.10;6.63;;;7.90;99.90;;;;;;5097300;28;20043;-70
2023/04/20 03:01:04;;;;;;;6.75;5.25;;;7.90;99.90;;;;;;5097095;28;20097;-69
2023/04/20 03:03:30;;;;;;;11.40;7.10;;;7.90;99.90;;;;;;5097076;28;20099;-69
2023/04/20 03:05:56;;;;;;;7.30;5.50;;;8.00;99.90;;;;;;5096325;28;20024;-70
2023/04/20 03:08:22;;;;;;;7.28;5.97;;;7.90;99.90;;;;;;5078795;28;20102;-69
2023/04/20 03:10:48;;;;;;;10.98;6.43;;;7.90;99.90;;;;;;5078930;28;20051;-70
2023/04/20 03:13:14;;;;;;;7.47;6.60;;;7.90;99.90;;;;;;5097115;28;20039;-70
2023/04/20 03:15:40;;;;;;;8.75;6.75;;;7.90;99.90;;;;;;5078402;28;20031;-70
2023/04/20 03:18:05;;;;;;;9.20;6.50;;;7.90;99.90;;;;;;5096872;28;20058;-70
2023/04/20 03:20:31;;;;;;;7.35;6.18;;;7.90;99.90;;;;;;5096841;28;20063;-69
2023/04/20 03:22:57;;;;;;;10.40;6.47;;;7.90;99.90;;;;;;5096866;28;20106;-69
2023/04/20 03:25:22;;;;;;;10.68;7.32;;;8.00;99.90;;;;;;5078643;28;20016;-69
2023/04/20 03:27:48;;;;;;;8.95;7.07;;;8.00;99.90;;;;;;5078783;28;20027;-70
2023/04/20 03:30:14;;;;;;;8.85;7.40;;;8.00;99.90;;;;;;5096923;28;20115;-70
2023/04/20 03:32:41;;;;;;;9.25;6.78;;;8.10;99.90;;;;;;5096809;28;20020;-69
2023/04/20 03:35:07;;;;;;;10.65;7.55;;;8.10;99.90;;;;;;5096831;28;20031;-69
2023/04/20 03:37:36;;;;;;;8.88;7.65;;;8.10;99.90;;;;;;5096817;28;20016;-70
2023/04/20 03:40:01;;;;;;;13.57;8.10;;;8.10;99.90;;;;;;5095353;28;20020;-70
2023/04/20 03:42:27;;;;;;;12.18;7.35;;;8.10;99.90;;;;;;5096777;28;20069;-70
2023/04/20 03:44:53;;;;;;;8.98;7.43;;;8.10;99.90;;;;;;5096825;28;20020;-70
2023/04/20 03:47:18;;;;;;;8.88;7.50;;;8.10;99.90;;;;;;5096776;28;20017;-70
2023/04/20 03:49:44;;;;;;;9.88;7.13;;;8.00;99.90;;;;;;5096632;28;20395;-70
2023/04/20 03:52:09;;;;;;;10.50;6.97;;;8.00;99.90;;;;;;5077399;28;20032;-70
2023/04/20 03:54:35;;;;;;;9.27;7.68;;;7.90;99.90;;;;;;5096365;28;20038;-70
2023/04/20 03:57:01;;;;;;;11.82;7.25;;;7.90;99.90;;;;;;5095946;28;20035;-70
2023/04/20 03:59:27;;;;;;;9.77;6.47;;;7.80;99.90;;;;;;5096690;28;20032;-70
2023/04/20 04:01:53;;;;;;;8.35;6.38;;;7.70;99.90;;;;;;5096971;28;20020;-70
2023/04/20 04:04:18;;;;;;;11.60;6.65;;;7.70;99.90;;;;;;5082188;28;20024;-70
2023/04/20 04:06:44;;;;;;;9.50;6.93;;;7.60;99.90;;;;;;5100757;28;20069;-70
2023/04/20 04:09:10;;;;;;;8.45;6.35;;;7.50;99.90;;;;;;5100535;28;20052;-70
2023/04/20 04:11:35;;;;;;;8.02;7.18;;;7.50;99.90;;;;;;5081881;28;20032;-70
2023/04/20 04:14:03;;;;;;;9.50;6.00;;;7.40;99.90;;;;;;5100286;28;20025;-70
2023/04/20 04:16:30;;;;;;;7.75;6.82;;;7.40;99.90;;;;;;5092027;28;20519;-70
2023/04/20 04:18:56;;;;;;;7.43;6.68;;;7.30;99.90;;;;;;5096601;28;20075;-70
2023/04/20 04:21:21;;;;;;;7.60;6.75;;;7.30;99.90;;;;;;5100647;28;20027;-70
2023/04/20 04:23:48;;;;;;;10.82;7.13;;;7.30;99.90;;;;;;5100317;28;20028;-70
2023/04/20 04:26:14;;;;;;;7.38;6.68;;;7.30;99.90;;;;;;5100153;28;20021;-70
2023/04/20 04:28:39;;;;;;;7.63;6.38;;;7.30;99.90;;;;;;5100030;28;20103;-70
2023/04/20 04:31:06;;;;;;;10.05;6.10;;;7.20;99.90;;;;;;5100166;28;20032;-70
2023/04/20 04:33:33;;;;;;;9.23;6.38;;;7.20;99.90;;;;;;5100002;28;20024;-70
2023/04/20 04:36:00;;;;;;;6.82;5.82;;;7.20;99.90;;;;;;5081988;28;20427;-69
2023/04/20 04:38:26;;;;;;;8.18;6.25;;;7.20;99.90;;;;;;5099800;28;20046;-70
2023/04/20 04:40:52;;;;;;;10.07;7.13;;;7.20;99.90;;;;;;5081541;28;20115;-70
2023/04/20 04:43:19;;;;;;;7.20;6.20;;;7.10;99.90;;;;;;5099688;28;20024;-70
2023/04/20 04:45:44;;;;;;;8.77;7.63;;;7.10;99.90;;;;;;5099964;28;20014;-69
2023/04/20 04:48:11;;;;;;;11.25;7.70;;;7.10;99.90;;;;;;5099641;28;20536;-70
2023/04/20 04:50:40;;;;;;;9.88;8.35;;;7.10;99.90;;;;;;5099864;28;20488;-70
2023/04/20 04:53:06;;;;;;;13.65;8.75;;;7.10;99.90;;;;;;5099730;28;20028;-69
2023/04/20 04:55:32;;;;;;;10.57;9.05;;;7.10;99.90;;;;;;5081376;28;20024;-70
2023/04/20 04:57:58;;;;;;;11.43;8.23;;;7.10;99.90;;;;;;5099389;28;20023;-70
2023/04/20 05:00:24;;;;;;;12.40;9.73;;;7.10;99.90;;;;;;5099616;28;20016;-70
2023/04/20 05:02:51;;;;;;;20.33;14.85;;;7.00;99.90;;;;;;5099333;28;20089;-69
2023/04/20 05:05:18;;;;;;;25.17;15.65;;;7.00;99.90;;;;;;5081290;28;20046;-70
2023/04/20 05:07:44;;;;;;;23.50;15.80;;;7.00;99.90;;;;;;5099463;28;20016;-69
2023/04/20 05:10:09;;;;;;;20.90;16.00;;;7.00;99.90;;;;;;5099380;28;20039;-70
2023/04/20 05:12:35;;;;;;;19.50;13.40;;;7.00;99.90;;;;;;5099029;28;20031;-70
2023/04/20 05:15:01;;;;;;;16.65;10.13;;;7.00;99.90;;;;;;5099463;28;20392;-70
2023/04/20 05:17:27;;;;;;;13.00;9.85;;;7.00;99.90;;;;;;5099282;28;20024;-70
2023/04/20 05:19:52;;;;;;;12.95;10.23;;;7.10;99.90;;;;;;5099028;28;20422;-69
2023/04/20 05:22:18;;;;;;;13.90;9.23;;;7.10;99.90;;;;;;5099087;28;20027;-70
2023/04/20 05:24:44;;;;;;;13.13;9.93;;;7.10;99.90;;;;;;5099286;28;20020;-69
2023/04/20 05:27:10;;;;;;;13.55;9.00;;;7.10;99.90;;;;;;5098691;28;20123;-69
2023/04/20 05:29:36;;;;;;;11.00;9.18;;;7.10;99.90;;;;;;5099259;28;20016;-69
2023/04/20 05:32:02;;;;;;;10.77;8.38;;;7.20;99.90;;;;;;5098982;28;20023;-69
2023/04/20 05:34:27;;;;;;;11.98;8.95;;;7.20;99.90;;;;;;5099079;28;20012;-69
2023/04/20 05:36:53;;;;;;;11.25;8.60;;;7.30;99.90;;;;;;5080594;28;20043;-69
2023/04/20 05:39:19;;;;;;;13.15;8.88;;;7.30;99.90;;;;;;5098967;28;20051;-69
2023/04/20 05:41:46;;;;;;;11.05;7.55;;;7.40;99.90;;;;;;5098444;28;20111;-69
2023/04/20 05:44:12;;;;;;;12.43;7.93;;;7.40;99.90;;;;;;5098890;28;20020;-69
2023/04/20 05:46:37;;;;;;;10.38;6.95;;;7.50;99.90;;;;;;5098120;28;20549;-70
2023/04/20 05:49:03;;;;;;;10.57;7.00;;;7.50;99.90;;;;;;5098729;28;20046;-69
2023/04/20 05:51:32;;;;;;;11.32;7.18;;;7.50;99.90;;;;;;5098461;28;20500;-69
2023/04/20 05:54:01;;;;;;;7.97;7.18;;;7.60;99.90;;;;;;5098724;28;20008;-69
2023/04/20 05:56:27;;;;;;;8.85;6.90;;;7.50;99.90;;;;;;5098049;28;20045;-70
2023/04/20 05:58:56;;;;;;;13.48;8.30;;;7.60;99.90;;;;;;5098500;28;20019;-69
2023/04/20 06:01:22;;;;;;;13.13;9.43;;;7.70;99.90;;;;;;5098211;28;20496;-69
2023/04/20 06:03:48;;;;;;;14.30;8.15;;;7.80;99.90;;;;;;5098466;28;20085;-70
2023/04/20 06:06:14;;;;;;;15.77;8.13;;;7.80;99.90;;;;;;5098164;28;20020;-70
2023/04/20 06:08:40;;;;;;;12.23;7.53;;;7.80;99.90;;;;;;5098595;28;20094;-69
2023/04/20 06:11:06;;;;;;;14.98;8.45;;;7.90;99.90;;;;;;5097935;28;20016;-70
2023/04/20 06:13:31;;;;;;;14.73;9.38;;;8.00;99.90;;;;;;5098392;28;20024;-69
2023/04/20 06:15:57;;;;;;;14.30;9.25;;;8.10;99.90;;;;;;5098021;28;20076;-70
2023/04/20 06:18:23;;;;;;;8.40;7.35;;;8.20;99.90;;;;;;5098121;28;20031;-69
2023/04/20 06:20:48;;;;;;;10.75;7.90;;;8.40;99.90;;;;;;5079408;28;20048;-69
2023/04/20 06:23:14;;;;;;;9.98;7.70;;;8.50;99.90;;;;;;5098197;28;20083;-69
2023/04/20 06:25:40;;;;;;;13.35;7.15;;;8.60;99.90;;;;;;5078650;28;20035;-70
2023/04/20 06:28:06;;;;;;;8.65;7.28;;;8.60;99.90;;;;;;5079705;28;20027;-70
2023/04/20 06:30:32;;;;;;;11.00;7.30;;;8.70;99.90;;;;;;5097725;28;20104;-70
2023/04/20 06:32:59;;;;;;;10.90;6.97;;;8.90;99.90;;;;;;5097933;28;20019;-69
2023/04/20 06:35:25;;;;;;;10.07;7.30;;;9.00;99.90;;;;;;5079393;28;20048;-69
2023/04/20 06:37:51;;;;;;;11.20;7.38;;;9.10;99.90;;;;;;5098036;28;20027;-69
2023/04/20 06:40:17;;;;;;;12.30;7.10;;;9.30;99.90;;;;;;5097233;28;20071;-69
2023/04/20 06:42:44;;;;;;;6.95;6.25;;;9.60;99.90;;;;;;5079581;28;20077;-69
2023/04/20 06:45:10;;;;;;;8.48;7.35;;;9.80;99.90;;;;;;5079212;28;20059;-69
2023/04/20 06:47:36;;;;;;;7.03;6.25;;;10.00;99.90;;;;;;5097575;28;20016;-70
2023/04/20 06:50:06;;;;;;;9.38;5.93;;;10.30;99.90;;;;;;5097200;28;20404;-69
2023/04/20 06:52:32;;;;;;;16.40;6.68;;;10.40;99.90;;;;;;5097472;28;20460;-69
2023/04/20 06:54:58;;;;;;;11.23;7.47;;;10.50;99.90;;;;;;5097134;28;20020;-69
2023/04/20 06:57:24;;;;;;;15.13;7.38;;;10.50;99.90;;;;;;5079284;28;20177;-69
2023/04/20 06:59:50;;;;;;;10.10;5.82;;;10.50;99.90;;;;;;5078946;28;20501;-69
2023/04/20 07:02:16;;;;;;;11.02;6.82;;;10.60;99.90;;;;;;5097390;28;20020;-69
2023/04/20 07:04:41;;;;;;;8.88;6.60;;;10.70;99.90;;;;;;5097054;28;20503;-69
2023/04/20 07:07:07;;;;;;;11.40;7.05;;;10.70;99.90;;;;;;5097378;28;20548;-69
2023/04/20 07:09:33;;;;;;;11.32;7.20;;;11.00;99.90;;;;;;5097268;28;20549;-69
2023/04/20 07:11:58;;;;;;;8.48;6.60;;;11.10;99.90;;;;;;5097136;28;20024;-69
2023/04/20 07:14:24;;;;;;;9.10;6.00;;;11.30;99.90;;;;;;5074674;28;20024;-69
2023/04/20 07:16:53;;;;;;;11.40;7.47;;;11.30;99.90;;;;;;5090037;28;20050;-69
2023/04/20 07:19:19;;;;;;;8.98;6.63;;;11.30;99.90;;;;;;5096798;28;20071;-69
2023/04/20 07:21:45;;;;;;;12.30;6.13;;;11.50;99.90;;;;;;5097040;28;20127;-69
2023/04/20 07:24:11;;;;;;;13.77;6.60;;;11.70;99.90;;;;;;5078824;28;20047;-69
2023/04/20 07:26:37;;;;;;;12.35;6.50;;;12.00;99.90;;;;;;5078810;28;20021;-69
2023/04/20 07:29:03;;;;;;;11.80;6.85;;;12.20;99.90;;;;;;5078046;28;20510;-68
2023/04/20 07:31:29;;;;;;;11.40;6.65;;;12.30;99.90;;;;;;5095734;28;20111;-68
2023/04/20 07:33:55;;;;;;;8.70;6.30;;;12.50;99.90;;;;;;5096266;28;20062;-69
2023/04/20 07:36:21;;;;;;;9.07;6.18;;;12.60;99.90;;;;;;5097265;28;20032;-69
2023/04/20 07:38:48;;;;;;;6.75;6.03;;;12.80;99.90;;;;;;5100933;28;20468;-69
2023/04/20 07:41:14;;;;;;;6.38;5.32;;;12.90;99.90;;;;;;5100819;28;20568;-69
2023/04/20 07:43:40;;;;;;;8.35;5.57;;;13.00;99.90;;;;;;5100951;28;20016;-70
2023/04/20 07:46:06;;;;;;;9.32;6.40;;;13.00;99.90;;;;;;5100962;28;20035;-69
2023/04/20 07:48:33;;;;;;;9.82;5.38;;;13.20;99.90;;;;;;5100761;28;20016;-69
2023/04/20 07:50:59;;;;;;;9.18;5.38;;;13.50;99.90;;;;;;5086142;28;20024;-69
2023/04/20 07:53:28;;;;;;;7.20;4.63;;;13.50;99.90;;;;;;5096006;28;20024;-69
2023/04/20 07:55:54;;;;;;;11.68;5.47;;;13.50;99.90;;;;;;5080594;28;20042;-69
2023/04/20 07:58:20;;;;;;;9.27;5.72;;;13.70;99.90;;;;;;5099128;28;20020;-69
2023/04/20 08:00:46;;;;;;;9.52;5.57;;;13.80;99.90;;;;;;5080157;28;20559;-69
2023/04/20 08:03:12;;;;;;;11.43;5.80;;;13.90;99.90;;;;;;5098927;28;20047;-69
2023/04/20 08:05:38;;;;;;;17.80;5.53;;;14.10;99.90;;;;;;5099083;28;20020;-69
2023/04/20 08:08:03;;;;;;;8.13;4.55;;;14.20;99.90;;;;;;5098784;28;20080;-69
2023/04/20 08:10:29;;;;;;;11.75;5.00;;;14.40;99.90;;;;;;5098609;28;20088;-69
2023/04/20 08:12:55;;;;;;;10.05;4.85;;;14.50;99.90;;;;;;5093890;28;20076;-69
2023/04/20 08:15:20;;;;;;;18.52;4.97;;;14.60;99.90;;;;;;5099147;28;20109;-69
2023/04/20 08:17:46;;;;;;;12.48;5.32;;;14.70;99.90;;;;;;5098992;28;20027;-69
2023/04/20 08:20:12;;;;;;;10.90;4.63;;;14.80;99.90;;;;;;5096877;28;20119;-69
2023/04/20 08:22:38;;;;;;;37.08;7.30;;;15.00;99.90;;;;;;5098772;28;20019;-69
2023/04/20 08:25:04;;;;;;;5.78;4.43;;;15.00;99.90;;;;;;5080439;28;20028;-70
2023/04/20 08:27:30;;;;;;;7.45;5.10;;;15.30;99.90;;;;;;5098907;28;20013;-69
2023/04/20 08:29:56;;;;;;;9.93;4.03;;;15.40;99.90;;;;;;5097107;28;20130;-70
2023/04/20 08:32:25;;;;;;;9.93;4.57;;;15.40;99.90;;;;;;5098567;28;20019;-69
2023/04/20 08:34:51;;;;;;;10.88;4.53;;;15.50;99.90;;;;;;5098852;28;20031;-70
2023/04/20 08:37:18;;;;;;;7.18;4.72;;;15.60;99.90;;;;;;5098361;28;20044;-69
2023/04/20 08:39:43;;;;;;;8.82;4.75;;;15.60;99.90;;;;;;5096593;28;20028;-69
2023/04/20 08:42:10;;;;;;;8.32;4.47;;;15.70;99.90;;;;;;5098460;28;20558;-70
2023/04/20 08:44:35;;;;;;;10.70;4.80;;;15.70;99.90;;;;;;5080274;28;20081;-69
2023/04/20 08:47:02;;;;;;;9.80;3.97;;;15.80;99.90;;;;;;5097656;28;20020;-70
2023/04/20 08:49:28;;;;;;;5.22;3.80;;;16.00;99.90;;;;;;5077482;28;20115;-70
2023/04/20 08:51:54;;;;;;;11.23;4.82;;;16.00;99.90;;;;;;5096425;28;20020;-69
2023/04/20 08:54:20;;;;;;;9.68;4.55;;;16.10;99.90;;;;;;5097939;28;20034;-69
2023/04/20 08:56:47;;;;;;;7.78;4.20;;;16.20;99.90;;;;;;5111500;28;20454;-69
2023/04/20 08:59:14;;;;;;;6.57;4.20;;;16.30;99.90;;;;;;5098946;28;20052;-70
2023/04/20 09:01:41;;;;;;;7.30;4.43;;;16.40;99.90;;;;;;5084037;28;20604;-70
2023/04/20 09:04:18;;;;;;;6.55;3.83;;;16.60;99.90;;;;;;5079765;28;20177;-69
2023/04/20 09:06:45;;;;;;;4.75;3.90;;;16.70;99.90;;;;;;5097993;28;20027;-69
2023/04/20 09:09:11;;;;;;;4.82;3.55;;;16.80;99.90;;;;;;5079661;28;20032;-72
2023/04/20 09:11:37;;;;;;;7.40;3.40;;;16.90;99.90;;;;;;5096892;28;20031;-70
2023/04/20 09:14:05;;;;;;;6.07;3.45;;;17.00;99.90;;;;;;5097950;28;20034;-69
2023/04/20 09:16:33;;;;;;;5.82;4.18;;;17.00;99.90;;;;;;5097949;28;20065;-70
2023/04/20 09:18:59;;;;;;;4.97;3.65;;;17.20;99.90;;;;;;5097292;28;20459;-70
2023/04/20 09:21:27;;;;;;;7.10;4.25;;;17.30;99.90;;;;;;5095141;28;20036;-69
2023/04/20 09:23:59;;;;;;;9.15;3.75;;;17.20;99.90;;;;;;5097575;28;20020;-70
2023/04/20 09:26:25;;;;;;;6.00;4.00;;;17.20;99.90;;;;;;5078920;28;20028;-70
2023/04/20 09:28:51;;;;;;;8.85;3.90;;;17.40;99.90;;;;;;5097284;28;20013;-70
2023/04/20 09:31:21;;;;;;;8.27;3.83;;;17.60;99.90;;;;;;5092549;28;20117;-69
2023/04/20 09:34:03;;;;;;;8.37;4.03;;;17.70;99.90;;;;;;5091778;28;20053;-69
2023/04/20 09:36:43;;;;;;;10.93;3.95;;;17.80;99.90;;;;;;5097129;28;20258;-71
2023/04/20 09:39:10;;;;;;;7.35;4.18;;;18.00;99.90;;;;;;5087551;28;20043;-70
2023/04/20 09:41:38;;;;;;;12.68;3.90;;;18.10;99.90;;;;;;5092310;28;20453;-69
2023/04/20 09:44:04;;;;;;;7.15;4.18;;;18.20;99.90;;;;;;5097420;28;20065;-70
2023/04/20 09:46:32;;;;;;;4.22;3.28;;;18.30;99.90;;;;;;5096993;28;20501;-70
2023/04/20 09:48:59;;;;;;;11.07;4.20;;;18.40;99.90;;;;;;5096893;28;20020;-69
2023/04/20 09:51:30;;;;;;;7.35;3.20;;;18.50;99.90;;;;;;5093922;28;20035;-69
2023/04/20 09:54:00;;;;;;;7.38;4.63;;;18.60;99.90;;;;;;5094952;28;20024;-69
2023/04/20 09:56:27;;;;;;;8.38;3.30;;;18.80;99.90;;;;;;5090073;28;20534;-69
2023/04/20 09:58:54;;;;;;;5.45;3.85;;;19.00;99.90;;;;;;5092564;28;20393;-69
2023/04/20 10:01:21;;;;;;;7.63;3.90;;;19.20;99.90;;;;;;5092668;28;20070;-69
2023/04/20 10:03:48;;;;;;;8.00;4.30;;;19.30;99.90;;;;;;5092156;28;20042;-69
2023/04/20 10:06:22;;;;;;;5.78;3.28;;;19.40;99.90;;;;;;5090625;28;20043;-69
2023/04/20 10:08:50;;;;;;;6.32;3.30;;;19.40;99.90;;;;;;5093644;28;20463;-69
2023/04/20 10:11:36;;;;;;;7.43;3.67;;;19.60;99.90;;;;;;5092009;28;20024;-69
2023/04/20 10:14:22;;;;;;;7.15;3.22;;;19.70;99.90;;;;;;5096496;28;20612;-69
2023/04/20 10:17:01;;;;;;;4.35;2.60;;;19.70;99.90;;;;;;5094909;28;20124;-69
2023/04/20 10:19:44;;;;;;;4.55;2.40;;;19.80;99.90;;;;;;5077438;28;20097;-69
2023/04/20 10:22:12;;;;;;;4.95;3.20;;;20.00;99.90;;;;;;5077239;28;20426;-69
2023/04/20 10:24:38;;;;;;;4.70;2.72;;;20.10;99.90;;;;;;5096192;28;20024;-69
2023/04/20 10:27:16;;;;;;;8.23;3.28;;;20.00;99.90;;;;;;5096366;28;20034;-69
2023/04/20 10:29:42;;;;;;;4.85;2.50;;;20.20;99.90;;;;;;5075628;28;20024;-67
2023/04/20 10:32:08;;;;;;;4.95;2.70;;;20.30;99.90;;;;;;5094688;28;20404;-67
2023/04/20 10:34:35;;;;;;;10.55;2.63;;;20.30;99.90;;;;;;5078567;28;20464;-69
2023/04/20 10:37:11;;;;;;;11.48;3.50;;;20.30;99.90;;;;;;5077942;28;20395;-69
2023/04/20 10:39:47;;;;;;;4.20;2.85;;;20.30;99.90;;;;;;5081983;28;20012;-69
2023/04/20 10:42:13;;;;;;;6.15;2.22;;;20.20;99.20;;;;;;5096123;28;20044;-69
2023/04/20 10:44:52;;;;;;;2.97;1.80;;;20.20;93.90;;;;;;5078007;28;20519;-69
2023/04/20 10:47:28;;;;;;;3.40;2.28;;;20.30;94.70;;;;;;5096187;28;20196;-68
2023/04/20 10:50:04;;;;;;;5.68;2.63;;;20.50;87.10;;;;;;5071495;28;20039;-68
2023/04/20 10:52:48;;;;;;;3.58;2.40;;;20.50;86.10;;;;;;5095541;28;20024;-69
2023/04/20 10:55:22;;;;;;;2.75;2.10;;;20.60;83.40;;;;;;5077559;28;20050;-68
2023/04/20 10:57:49;;;;;;;3.42;2.30;;;20.80;83.80;;;;;;5095938;28;20027;-68
2023/04/20 11:00:17;;;;;;;4.13;2.33;;;20.90;78.20;;;;;;5093522;28;20032;-69
2023/04/20 11:02:50;;;;;;;2.97;2.00;;;21.00;76.00;;;;;;5077566;28;20028;-66
2023/04/20 11:05:21;;;;;;;3.63;2.30;;;21.20;74.70;;;;;;5077629;28;20021;-68
2023/04/20 11:07:55;;;;;;;5.80;2.25;;;21.10;75.40;;;;;;5095604;28;20020;-68
2023/04/20 11:10:42;;;;;;;5.40;2.33;;;21.20;76.00;;;;;;5075009;28;20032;-68
2023/04/20 11:13:24;;;;;;;6.50;2.17;;;21.20;78.00;;;;;;5095177;28;20109;-69
2023/04/20 11:15:50;;;;;;;3.63;2.03;;;21.30;76.40;;;;;;5093689;28;20050;-69
2023/04/20 11:18:17;;;;;;;2.75;2.00;;;21.40;73.00;;;;;;5107105;28;20019;-68
2023/04/20 11:20:53;;;;;;;3.72;1.95;;;21.40;73.90;;;;;;5115194;28;20132;-69
2023/04/20 11:23:22;;;;;;;5.40;2.30;;;21.60;71.40;;;;;;5116347;28;20059;-69
2023/04/20 11:25:55;;;;;;;4.93;2.38;;;21.60;70.60;;;;;;5115875;28;20019;-68
2023/04/20 11:28:21;;;;;;;3.67;1.88;;;21.60;69.90;;;;;;5097575;28;20106;-68
2023/04/20 11:30:48;;;;;;;5.60;1.80;;;21.50;70.50;;;;;;5114365;28;20422;-69
2023/04/20 11:33:14;;;;;;;5.40;1.83;;;21.50;68.70;;;;;;5115745;28;20077;-68
2023/04/20 11:35:41;;;;;;;5.20;2.08;;;21.50;69.90;;;;;;5116023;28;20008;-69
2023/04/20 11:38:08;;;;;;;6.38;2.13;;;21.60;73.80;;;;;;5115822;28;20455;-69
2023/04/20 11:40:34;;;;;;;7.68;2.70;;;21.70;72.20;;;;;;5113450;28;20019;-69
2023/04/20 11:43:00;;;;;;;7.10;1.90;;;21.70;73.20;;;;;;5115820;28;20031;-69
2023/04/20 11:45:26;;;;;;;4.05;1.98;;;21.80;73.70;;;;;;5108349;28;20023;-69
2023/04/20 11:47:53;;;;;;;6.97;2.28;;;21.90;70.90;;;;;;5088568;28;20387;-69
2023/04/20 11:50:20;;;;;;;10.50;3.15;;;21.90;72.10;;;;;;5105369;28;20023;-68
2023/04/20 11:52:46;;;;;;;4.40;2.10;;;21.90;71.10;;;;;;5096047;28;20046;-69
2023/04/20 11:55:12;;;;;;;7.32;2.20;;;22.00;74.80;;;;;;5115684;28;20438;-69
2023/04/20 11:57:37;;;;;;;8.98;2.47;;;22.10;70.90;;;;;;5112300;28;20103;-69
2023/04/20 12:00:05;;;;;;;3.38;2.03;;;22.00;71.60;;;;;;5075376;28;20027;-68
2023/04/20 12:02:31;;;;;;;5.47;2.50;;;22.10;75.80;;;;;;5101265;28;20031;-69
2023/04/20 12:04:56;;;;;;;8.00;2.42;;;22.10;72.70;;;;;;5090038;28;20024;-69
2023/04/20 12:07:22;;;;;;;5.93;2.33;;;22.20;70.60;;;;;;5114144;28;20028;-69
2023/04/20 12:09:48;;;;;;;6.20;2.92;;;22.40;69.50;;;;;;5097278;28;20030;-69
2023/04/20 12:12:14;;;;;;;16.23;2.40;;;22.80;72.30;;;;;;5104727;28;20031;-68
2023/04/20 12:14:40;;;;;;;4.50;2.58;;;23.30;73.40;;;;;;5109408;28;20030;-69
2023/04/20 12:17:05;;;;;;;5.70;2.17;;;23.70;69.60;;;;;;5097220;28;20020;-69
2023/04/20 12:19:31;;;;;;;5.03;1.98;;;23.90;70.60;;;;;;5115087;28;20404;-69
2023/04/20 12:21:57;;;;;;;4.60;2.42;;;23.60;68.90;;;;;;5114481;28;20035;-69
2023/04/20 12:24:22;;;;;;;13.10;3.70;;;23.40;71.00;;;;;;5099780;28;20015;-69
2023/04/20 12:26:48;;;;;;;3.75;2.20;;;23.30;72.40;;;;;;5107089;28;20110;-69
2023/04/20 12:29:15;;;;;;;9.30;2.50;;;23.40;69.20;;;;;;5100690;28;20560;-69
2023/04/20 12:31:40;;;;;;;5.30;1.90;;;23.50;68.50;;;;;;5111819;28;20058;-70
2023/04/20 12:34:06;;;;;;;5.05;1.80;;;23.60;67.80;;;;;;5090622;28;20024;-69
2023/04/20 12:36:33;;;;;;;6.38;2.30;;;23.60;69.80;;;;;;5118938;28;20041;-69
2023/04/20 12:39:00;;;;;;;5.10;2.00;;;23.60;69.40;;;;;;5106230;28;20115;-68
2023/04/20 12:41:26;;;;;;;4.78;2.05;;;23.50;69.10;;;;;;5098830;28;20023;-68
2023/04/20 12:43:52;;;;;;;4.82;2.20;;;23.40;68.20;;;;;;5118320;28;20020;-69
2023/04/20 12:46:18;;;;;;;5.03;2.42;;;23.50;68.10;;;;;;5118535;28;20033;-69